createdAt,value
2022-08-20T00:02:16.757Z,20.17
2022-08-20T00:04:45.298Z,20.16
2022-08-20T00:07:14.547Z,20.10
2022-08-20T00:09:43.715Z,20.06
2022-08-20T00:12:16.366Z,20.04
2022-08-20T00:14:44.552Z,20.01
2022-08-20T00:17:12.706Z,19.98
2022-08-20T00:19:40.897Z,19.97
2022-08-20T00:22:09.308Z,19.95
2022-08-20T00:24:37.791Z,19.92
2022-08-20T00:27:06.129Z,19.88
2022-08-20T00:29:34.622Z,19.84
2022-08-20T00:32:03.297Z,19.82
2022-08-20T00:34:31.581Z,19.82
2022-08-20T00:36:59.772Z,19.82
2022-08-20T00:39:28.360Z,19.82
2022-08-20T00:41:56.499Z,19.79
2022-08-20T00:44:24.950Z,19.77
2022-08-20T00:46:53.788Z,19.76
2022-08-20T00:49:28.324Z,19.75
2022-08-20T00:51:59.311Z,19.75
2022-08-20T00:54:34.926Z,19.76
2022-08-20T00:57:10.725Z,19.75
2022-08-20T00:59:42.163Z,19.74
2022-08-20T01:02:14.730Z,19.73
2022-08-20T01:04:55.610Z,19.71
2022-08-20T01:07:35.231Z,19.69
2022-08-20T01:10:11.845Z,19.68
2022-08-20T01:12:43.436Z,19.66
2022-08-20T01:15:15.657Z,19.67
2022-08-20T01:17:46.045Z,19.68
2022-08-20T01:20:22.872Z,19.65
2022-08-20T01:23:26.722Z,19.59
2022-08-20T01:26:23.399Z,19.54
2022-08-20T01:29:14.964Z,19.50
2022-08-20T01:31:43.751Z,19.47
2022-08-20T01:34:15.586Z,19.45
2022-08-20T01:36:48.568Z,19.45
2022-08-20T01:39:24.606Z,19.46
2022-08-20T01:41:58.187Z,19.47
2022-08-20T01:44:27.357Z,19.45
2022-08-20T01:46:57.504Z,19.43
2022-08-20T01:49:30.124Z,19.37
2022-08-20T01:52:01.410Z,19.32
2022-08-20T01:54:29.541Z,19.28
2022-08-20T01:57:12.474Z,19.28
2022-08-20T01:59:41.258Z,19.28
2022-08-20T02:02:12.946Z,19.28
2022-08-20T02:04:42.011Z,19.26
2022-08-20T02:07:16.421Z,19.23
2022-08-20T02:09:45.663Z,19.20
2022-08-20T02:12:17.598Z,19.18
2022-08-20T02:14:51.676Z,19.13
2022-08-20T02:17:23.287Z,19.03
2022-08-20T02:19:57.779Z,18.97
2022-08-20T02:22:50.468Z,18.97
2022-08-20T02:25:23.144Z,18.98
2022-08-20T02:27:53.977Z,18.98
2022-08-20T02:30:28.680Z,18.95
2022-08-20T02:32:58.736Z,18.91
2022-08-20T02:35:28.066Z,18.87
2022-08-20T02:37:56.656Z,18.83
2022-08-20T02:40:31.252Z,18.78
2022-08-20T02:43:00.958Z,18.73
2022-08-20T02:45:31.931Z,18.71
2022-08-20T02:48:00.102Z,18.71
2022-08-20T02:50:28.633Z,18.72
2022-08-20T02:52:57.121Z,18.74
2022-08-20T02:55:28.027Z,18.77
2022-08-20T02:57:59.219Z,18.79
2022-08-20T03:00:38.107Z,18.82
2022-08-20T03:03:09.041Z,18.84
2022-08-20T03:05:42.070Z,18.87
2022-08-20T03:08:12.556Z,18.89
2022-08-20T03:10:43.745Z,18.90
2022-08-20T03:13:13.592Z,18.92
2022-08-20T03:15:44.999Z,18.93
2022-08-20T03:18:14.754Z,18.92
2022-08-20T03:20:46.004Z,18.88
2022-08-20T03:23:15.050Z,18.86
2022-08-20T03:25:44.099Z,18.84
2022-08-20T03:28:13.823Z,18.83
2022-08-20T03:30:42.803Z,18.81
2022-08-20T03:33:11.067Z,18.77
2022-08-20T03:35:39.919Z,18.74
2022-08-20T03:38:10.938Z,18.70
2022-08-20T03:40:39.275Z,18.62
2022-08-20T03:43:11.649Z,18.56
2022-08-20T03:45:41.109Z,18.55
2022-08-20T03:48:11.497Z,18.55
2022-08-20T03:50:42.679Z,18.54
2022-08-20T03:53:14.768Z,18.51
2022-08-20T03:55:54.415Z,18.45
2022-08-20T03:58:29.872Z,18.45
2022-08-20T04:01:06.807Z,18.51
2022-08-20T04:03:35.655Z,18.57
2022-08-20T04:06:04.551Z,18.65
2022-08-20T04:08:33.588Z,18.74
2022-08-20T04:11:02.220Z,18.81
2022-08-20T04:13:31.506Z,18.91
2022-08-20T04:16:04.122Z,19.07
2022-08-20T04:18:33.263Z,19.25
2022-08-20T04:21:01.622Z,19.38
2022-08-20T04:23:31.353Z,19.52
2022-08-20T04:26:00.887Z,19.64
2022-08-20T04:28:29.071Z,19.76
2022-08-20T04:31:01.128Z,19.90
2022-08-20T04:33:35.167Z,20.03
2022-08-20T04:36:06.511Z,20.16
2022-08-20T04:38:49.622Z,20.29
2022-08-20T04:41:24.389Z,20.47
2022-08-20T04:43:54.531Z,20.63
2022-08-20T04:46:28.170Z,20.79
2022-08-20T04:48:57.830Z,20.94
2022-08-20T04:51:26.894Z,21.10
2022-08-20T04:53:57.532Z,21.31
2022-08-20T04:56:29.550Z,21.48
2022-08-20T04:58:58.926Z,21.52
2022-08-20T05:01:28.013Z,21.55
2022-08-20T05:03:57.973Z,21.77
2022-08-20T05:06:31.024Z,21.96
2022-08-20T05:09:00.753Z,22.04
2022-08-20T05:11:35.813Z,22.21
2022-08-20T05:14:09.226Z,22.38
2022-08-20T05:16:39.515Z,22.64
2022-08-20T05:19:11.486Z,22.85
2022-08-20T05:21:41.245Z,22.96
2022-08-20T05:24:12.346Z,22.85
2022-08-20T05:26:40.915Z,22.80
2022-08-20T05:29:09.119Z,22.93
2022-08-20T05:31:38.743Z,23.13
2022-08-20T05:34:10.966Z,23.39
2022-08-20T05:36:46.878Z,23.65
2022-08-20T05:39:20.744Z,23.88
2022-08-20T05:41:51.504Z,23.99
2022-08-20T05:44:20.033Z,24.07
2022-08-20T05:46:48.640Z,24.32
2022-08-20T05:49:21.444Z,24.57
2022-08-20T05:51:51.715Z,24.77
2022-08-20T05:54:21.460Z,24.97
2022-08-20T05:56:50.838Z,25.10
2022-08-20T05:59:23.535Z,25.35
2022-08-20T06:01:53.140Z,25.57
2022-08-20T06:04:32.253Z,25.66
2022-08-20T06:07:07.419Z,25.71
2022-08-20T06:09:36.517Z,25.66
2022-08-20T06:12:09.131Z,25.78
2022-08-20T06:14:37.511Z,25.84
2022-08-20T06:17:09.205Z,26.05
2022-08-20T06:19:40.038Z,25.67
2022-08-20T06:22:20.466Z,25.56
2022-08-20T06:24:55.674Z,25.80
2022-08-20T06:27:24.846Z,25.99
2022-08-20T06:29:54.037Z,25.85
2022-08-20T06:32:31.795Z,25.93
2022-08-20T06:35:03.638Z,25.82
2022-08-20T06:37:33.932Z,25.80
2022-08-20T06:40:14.710Z,25.83
2022-08-20T06:42:48.133Z,25.71
2022-08-20T06:45:26.495Z,25.64
2022-08-20T06:47:58.157Z,25.71
2022-08-20T06:50:32.856Z,25.62
2022-08-20T06:53:01.033Z,25.74
2022-08-20T06:55:30.124Z,26.00
2022-08-20T06:58:00.619Z,26.21
2022-08-20T07:00:31.974Z,26.29
2022-08-20T07:03:01.758Z,26.50
2022-08-20T07:05:32.615Z,26.61
2022-08-20T07:08:01.750Z,26.67
2022-08-20T07:10:30.688Z,26.83
2022-08-20T07:13:00.366Z,26.88
2022-08-20T07:15:30.445Z,26.81
2022-08-20T07:18:01.939Z,26.85
2022-08-20T07:20:32.887Z,27.05
2022-08-20T07:23:01.507Z,27.30
2022-08-20T07:25:33.829Z,27.48
2022-08-20T07:28:08.634Z,27.73
2022-08-20T07:30:55.978Z,28.19
2022-08-20T07:33:28.420Z,28.63
2022-08-20T07:35:59.077Z,28.83
2022-08-20T07:38:30.426Z,29.11
2022-08-20T07:41:03.658Z,29.47
2022-08-20T07:43:33.184Z,29.75
2022-08-20T07:46:08.599Z,30.07
2022-08-20T07:48:42.278Z,30.33
2022-08-20T07:51:11.160Z,30.56
2022-08-20T07:53:40.828Z,30.94
2022-08-20T07:56:12.808Z,31.46
2022-08-20T07:58:49.949Z,31.96
2022-08-20T08:01:21.358Z,32.28
2022-08-20T08:03:51.731Z,32.39
2022-08-20T08:06:28.523Z,32.61
2022-08-20T08:09:07.321Z,32.71
2022-08-20T08:11:38.300Z,32.87
2022-08-20T08:14:09.833Z,32.80
2022-08-20T08:16:39.454Z,32.81
2022-08-20T08:19:12.303Z,32.92
2022-08-20T08:21:41.694Z,33.05
2022-08-20T08:24:14.335Z,33.12
2022-08-20T08:26:45.293Z,33.33
2022-08-20T08:29:13.826Z,33.61
2022-08-20T08:31:42.697Z,33.81
2022-08-20T08:34:11.750Z,34.03
2022-08-20T08:36:40.688Z,34.17
2022-08-20T08:39:08.955Z,34.26
2022-08-20T08:41:40.215Z,34.12
2022-08-20T08:44:24.258Z,33.86
2022-08-20T08:47:01.683Z,33.60
2022-08-20T08:49:37.651Z,33.48
2022-08-20T08:52:14.991Z,33.73
2022-08-20T08:54:49.144Z,33.73
2022-08-20T08:57:17.595Z,33.62
2022-08-20T09:00:03.957Z,33.74
2022-08-20T09:02:36.466Z,33.94
2022-08-20T09:05:17.052Z,34.17
2022-08-20T09:07:51.314Z,34.50
2022-08-20T09:10:23.329Z,34.90
2022-08-20T09:12:52.575Z,34.75
2022-08-20T09:15:21.782Z,34.60
2022-08-20T09:17:50.323Z,34.62
2022-08-20T09:20:18.895Z,34.86
2022-08-20T09:22:47.170Z,34.77
2022-08-20T09:25:17.380Z,34.79
2022-08-20T09:27:46.174Z,34.84
2022-08-20T09:30:18.483Z,35.06
2022-08-20T09:32:47.103Z,35.10
2022-08-20T09:35:16.153Z,35.25
2022-08-20T09:37:44.387Z,35.40
2022-08-20T09:40:14.200Z,35.27
2022-08-20T09:42:50.622Z,35.32
2022-08-20T09:45:19.378Z,35.51
2022-08-20T09:47:54.836Z,35.84
2022-08-20T09:50:28.053Z,35.97
2022-08-20T09:52:59.491Z,35.78
2022-08-20T09:55:44.571Z,35.80
2022-08-20T09:58:31.243Z,35.75
2022-08-20T10:01:04.351Z,35.97
2022-08-20T10:03:32.599Z,36.22
2022-08-20T10:06:00.770Z,36.36
2022-08-20T10:08:29.402Z,36.40
2022-08-20T10:10:57.758Z,36.43
2022-08-20T10:13:26.062Z,36.35
2022-08-20T10:15:54.212Z,36.34
2022-08-20T10:18:22.397Z,36.46
2022-08-20T10:20:50.492Z,36.76
2022-08-20T10:23:18.675Z,36.84
2022-08-20T10:25:46.799Z,36.96
2022-08-20T10:28:14.970Z,36.79
2022-08-20T10:30:45.316Z,36.48
2022-08-20T10:33:13.391Z,36.16
2022-08-20T10:35:41.702Z,36.35
2022-08-20T10:38:10.272Z,36.22
2022-08-20T10:40:38.391Z,36.31
2022-08-20T10:43:06.620Z,36.36
2022-08-20T10:45:34.717Z,36.48
2022-08-20T10:48:04.706Z,36.53
2022-08-20T10:50:32.843Z,36.79
2022-08-20T10:53:00.926Z,37.00
2022-08-20T10:55:29.160Z,37.26
2022-08-20T10:57:57.891Z,37.61
2022-08-20T11:00:27.002Z,37.66
2022-08-20T11:02:55.553Z,37.49
2022-08-20T11:05:24.005Z,37.37
2022-08-20T11:07:56.140Z,37.45
2022-08-20T11:10:27.558Z,37.49
2022-08-20T11:12:55.852Z,37.15
2022-08-20T11:15:24.776Z,36.78
2022-08-20T11:17:53.691Z,36.57
2022-08-20T11:20:25.296Z,36.44
2022-08-20T11:22:54.719Z,36.38
2022-08-20T11:25:22.864Z,36.44
2022-08-20T11:27:52.650Z,36.53
2022-08-20T11:30:28.450Z,36.57
2022-08-20T11:32:58.844Z,36.87
2022-08-20T11:35:48.996Z,37.11
2022-08-20T11:38:19.608Z,37.03
2022-08-20T11:40:47.943Z,36.76
2022-08-20T11:43:17.475Z,36.64
2022-08-20T11:45:50.533Z,36.58
2022-08-20T11:48:19.147Z,36.96
2022-08-20T11:50:48.537Z,36.85
2022-08-20T11:53:17.098Z,36.66
2022-08-20T11:55:46.319Z,36.77
2022-08-20T11:58:16.101Z,36.84
2022-08-20T12:00:44.339Z,36.57
2022-08-20T12:03:13.152Z,36.11
2022-08-20T12:05:44.337Z,35.87
2022-08-20T12:08:27.319Z,35.72
2022-08-20T12:11:01.616Z,36.03
2022-08-20T12:13:47.405Z,36.24
2022-08-20T12:16:20.368Z,36.33
2022-08-20T12:18:49.071Z,36.20
2022-08-20T12:21:17.871Z,36.06
2022-08-20T12:23:46.324Z,35.97
2022-08-20T12:26:16.881Z,35.76
2022-08-20T12:28:45.008Z,35.54
2022-08-20T12:31:13.244Z,35.58
2022-08-20T12:33:41.551Z,35.90
2022-08-20T12:36:09.826Z,36.01
2022-08-20T12:38:37.974Z,35.78
2022-08-20T12:41:06.943Z,35.38
2022-08-20T12:43:35.166Z,35.07
2022-08-20T12:46:03.352Z,34.59
2022-08-20T12:48:31.492Z,34.23
2022-08-20T12:50:59.755Z,34.11
2022-08-20T12:53:29.447Z,33.99
2022-08-20T12:55:57.580Z,33.76
2022-08-20T12:58:25.757Z,33.59
2022-08-20T13:00:54.089Z,33.45
2022-08-20T13:03:22.249Z,33.30
2022-08-20T13:05:50.791Z,33.11
2022-08-20T13:08:19.700Z,32.99
2022-08-20T13:10:48.393Z,32.82
2022-08-20T13:13:20.998Z,32.64
2022-08-20T13:15:51.325Z,32.45
2022-08-20T13:18:20.899Z,32.30
2022-08-20T13:20:49.168Z,32.12
2022-08-20T13:23:17.763Z,31.97
2022-08-20T13:25:46.094Z,31.84
2022-08-20T13:28:14.215Z,31.79
2022-08-20T13:30:42.457Z,31.76
2022-08-20T13:33:10.636Z,31.72
2022-08-20T13:35:38.907Z,31.67
2022-08-20T13:38:07.115Z,31.63
2022-08-20T13:40:35.863Z,31.60
2022-08-20T13:43:07.113Z,31.51
2022-08-20T13:45:39.954Z,31.11
2022-08-20T13:48:09.951Z,30.59
2022-08-20T13:50:47.154Z,30.09
2022-08-20T13:53:17.495Z,29.54
2022-08-20T13:55:46.701Z,29.08
2022-08-20T13:58:14.918Z,28.87
2022-08-20T14:00:43.635Z,28.76
2022-08-20T14:03:12.686Z,28.43
2022-08-20T14:05:42.239Z,28.08
2022-08-20T14:08:21.446Z,27.86
2022-08-20T14:10:51.636Z,27.67
2022-08-20T14:13:24.130Z,27.41
2022-08-20T14:15:52.942Z,27.22
2022-08-20T14:18:21.160Z,27.06
2022-08-20T14:20:49.834Z,26.89
2022-08-20T14:23:17.970Z,26.77
2022-08-20T14:25:49.686Z,26.65
2022-08-20T14:28:21.145Z,26.55
2022-08-20T14:30:53.054Z,26.42
2022-08-20T14:33:24.152Z,26.30
2022-08-20T14:35:53.101Z,26.15
2022-08-20T14:38:21.862Z,26.06
2022-08-20T14:40:50.799Z,25.93
2022-08-20T14:43:19.775Z,25.82
2022-08-20T14:45:48.267Z,25.73
2022-08-20T14:48:16.632Z,25.64
2022-08-20T14:50:45.014Z,25.60
2022-08-20T14:53:13.142Z,25.58
2022-08-20T14:55:41.339Z,25.58
2022-08-20T14:58:12.168Z,25.61
2022-08-20T15:00:40.661Z,25.64
2022-08-20T15:03:09.222Z,25.67
2022-08-20T15:05:39.457Z,25.67
2022-08-20T15:08:10.737Z,25.68
2022-08-20T15:10:39.723Z,25.71
2022-08-20T15:13:09.112Z,25.67
2022-08-20T15:15:37.686Z,25.65
2022-08-20T15:18:06.536Z,25.61
2022-08-20T15:20:36.591Z,25.60
2022-08-20T15:23:06.366Z,25.55
2022-08-20T15:25:36.865Z,25.49
2022-08-20T15:28:09.074Z,25.45
2022-08-20T15:30:40.237Z,25.41
2022-08-20T15:33:11.441Z,25.37
2022-08-20T15:35:39.740Z,25.34
2022-08-20T15:38:08.403Z,25.32
2022-08-20T15:40:37.380Z,25.33
2022-08-20T15:43:06.186Z,25.34
2022-08-20T15:45:35.545Z,25.32
2022-08-20T15:48:13.467Z,25.30
2022-08-20T15:51:04.363Z,25.19
2022-08-20T15:53:36.165Z,25.05
2022-08-20T15:56:20.111Z,24.97
2022-08-20T15:59:12.283Z,24.92
2022-08-20T16:01:58.520Z,24.78
2022-08-20T16:04:37.441Z,24.80
2022-08-20T16:07:26.285Z,24.74
2022-08-20T16:10:15.881Z,24.71
2022-08-20T16:12:49.877Z,24.67
2022-08-20T16:15:31.815Z,24.63
2022-08-20T16:18:06.713Z,24.57
2022-08-20T16:20:48.584Z,24.52
2022-08-20T16:23:20.070Z,24.50
2022-08-20T16:26:05.402Z,24.45
2022-08-20T16:28:41.927Z,24.44
2022-08-20T16:31:14.873Z,24.41
2022-08-20T16:33:54.806Z,24.38
2022-08-20T16:36:32.450Z,24.34
2022-08-20T16:39:20.176Z,24.30
2022-08-20T16:41:53.655Z,24.31
2022-08-20T16:44:39.711Z,24.32
2022-08-20T16:47:33.488Z,24.32
2022-08-20T16:50:12.102Z,24.32
2022-08-20T16:52:43.840Z,24.28
2022-08-20T16:55:13.120Z,24.21
2022-08-20T16:57:41.523Z,24.15
2022-08-20T17:00:21.242Z,24.10
2022-08-20T17:02:50.845Z,24.06
2022-08-20T17:05:20.099Z,24.05
2022-08-20T17:07:53.112Z,24.07
2022-08-20T17:10:26.928Z,24.07
2022-08-20T17:13:20.712Z,24.08
2022-08-20T17:16:02.585Z,24.08
2022-08-20T17:18:35.302Z,24.06
2022-08-20T17:21:23.362Z,24.06
2022-08-20T17:23:56.814Z,24.06
2022-08-20T17:26:28.228Z,24.06
2022-08-20T17:28:59.830Z,24.06
2022-08-20T17:31:38.564Z,24.06
2022-08-20T17:34:22.711Z,24.07
2022-08-20T17:36:55.652Z,24.07
2022-08-20T17:39:26.740Z,24.07
2022-08-20T17:42:08.977Z,24.04
2022-08-20T17:44:41.893Z,24.01
2022-08-20T17:47:18.796Z,23.92
2022-08-20T17:50:02.154Z,23.85
2022-08-20T17:52:39.201Z,23.80
2022-08-20T17:55:08.750Z,23.76
2022-08-20T17:57:40.399Z,23.73
2022-08-20T18:00:15.700Z,23.70
2022-08-20T18:02:44.436Z,23.65
2022-08-20T18:05:19.198Z,23.60
2022-08-20T18:08:09.446Z,23.55
2022-08-20T18:11:09.996Z,23.52
2022-08-20T18:13:57.063Z,23.48
2022-08-20T18:16:41.171Z,23.46
2022-08-20T18:19:24.606Z,23.43
2022-08-20T18:22:10.194Z,23.41
2022-08-20T18:25:06.498Z,23.37
2022-08-20T18:27:53.145Z,23.30
2022-08-20T18:30:25.176Z,23.21
2022-08-20T18:33:07.677Z,23.16
2022-08-20T18:35:44.876Z,23.11
2022-08-20T18:38:17.430Z,23.05
2022-08-20T18:40:45.648Z,23.01
2022-08-20T18:43:28.046Z,22.98
2022-08-20T18:45:56.428Z,22.97
2022-08-20T18:48:25.959Z,22.92
2022-08-20T18:50:57.479Z,22.89
2022-08-20T18:53:34.394Z,22.89
2022-08-20T18:56:07.936Z,22.90
2022-08-20T18:59:05.783Z,22.90
2022-08-20T19:01:37.316Z,22.90
2022-08-20T19:04:26.686Z,22.89
2022-08-20T19:07:00.760Z,22.88
2022-08-20T19:10:06.661Z,22.88
2022-08-20T19:12:45.542Z,22.86
2022-08-20T19:15:19.242Z,22.83
2022-08-20T19:18:07.370Z,22.79
2022-08-20T19:20:38.886Z,22.76
2022-08-20T19:23:14.644Z,22.74
2022-08-20T19:25:55.695Z,22.74
2022-08-20T19:28:41.319Z,22.75
2022-08-20T19:31:31.919Z,22.74
2022-08-20T19:34:21.599Z,22.73
2022-08-20T19:37:27.561Z,22.72
2022-08-20T19:39:52.571Z,22.71
2022-08-20T19:42:25.770Z,22.70
2022-08-20T19:44:55.802Z,22.68
2022-08-20T19:47:33.729Z,22.66
2022-08-20T19:50:36.692Z,22.65
2022-08-20T19:53:14.124Z,22.61
2022-08-20T19:55:42.476Z,22.58
2022-08-20T19:58:26.423Z,22.53
2022-08-20T20:00:56.489Z,22.48
2022-08-20T20:03:32.983Z,22.42
2022-08-20T20:06:21.563Z,22.35
2022-08-20T20:09:17.722Z,22.29
2022-08-20T20:11:58.586Z,22.23
2022-08-20T20:14:30.757Z,22.17
2022-08-20T20:17:00.394Z,22.10
2022-08-20T20:19:28.851Z,21.99
2022-08-20T20:22:19.278Z,21.81
2022-08-20T20:25:15.562Z,21.65
2022-08-20T20:27:53.398Z,21.58
2022-08-20T20:30:30.750Z,21.54
2022-08-20T20:33:03.375Z,21.52
2022-08-20T20:35:35.889Z,21.51
2022-08-20T20:38:08.139Z,21.49
2022-08-20T20:40:51.182Z,21.45
2022-08-20T20:43:33.118Z,21.41
2022-08-20T20:46:16.185Z,21.38
2022-08-20T20:49:05.097Z,21.34
2022-08-20T20:51:36.723Z,21.31
2022-08-20T20:54:21.338Z,21.29
2022-08-20T20:57:05.836Z,21.27
2022-08-20T20:59:35.726Z,21.26
2022-08-20T21:02:04.879Z,21.25
2022-08-20T21:04:33.299Z,21.22
2022-08-20T21:07:11.476Z,21.19
2022-08-20T21:09:41.932Z,21.11
2022-08-20T21:12:12.475Z,21.03
2022-08-20T21:14:41.229Z,21.00
2022-08-20T21:17:13.197Z,20.97
2022-08-20T21:19:45.108Z,20.96
2022-08-20T21:22:14.506Z,20.96
2022-08-20T21:24:42.690Z,20.95
2022-08-20T21:27:12.391Z,20.95
2022-08-20T21:29:41.594Z,20.95
2022-08-20T21:32:12.410Z,20.94
2022-08-20T21:34:41.451Z,20.94
2022-08-20T21:37:10.274Z,20.96
2022-08-20T21:39:40.109Z,20.97
2022-08-20T21:42:21.137Z,20.98
2022-08-20T21:45:00.106Z,20.95
2022-08-20T21:47:28.365Z,20.97
2022-08-20T21:49:57.205Z,20.95
2022-08-20T21:52:25.393Z,20.96
2022-08-20T21:54:54.135Z,20.95
2022-08-20T21:57:28.411Z,20.94
2022-08-20T21:59:58.214Z,20.92
2022-08-20T22:02:27.451Z,20.91
2022-08-20T22:04:55.693Z,20.88
2022-08-20T22:07:24.010Z,20.84
2022-08-20T22:09:52.310Z,20.77
2022-08-20T22:12:26.995Z,20.72
2022-08-20T22:14:55.274Z,20.69
2022-08-20T22:17:23.583Z,20.63
2022-08-20T22:19:51.772Z,20.58
2022-08-20T22:22:21.553Z,20.56
2022-08-20T22:24:49.957Z,20.54
2022-08-20T22:27:18.229Z,20.51
2022-08-20T22:29:46.419Z,20.51
2022-08-20T22:32:14.877Z,20.53
2022-08-20T22:34:43.160Z,20.54
2022-08-20T22:37:13.710Z,20.53
2022-08-20T22:39:41.972Z,20.50
2022-08-20T22:42:10.630Z,20.47
2022-08-20T22:44:38.926Z,20.45
2022-08-20T22:47:09.170Z,20.44
2022-08-20T22:49:40.003Z,20.40
2022-08-20T22:52:09.278Z,20.37
2022-08-20T22:54:38.467Z,20.31
2022-08-20T22:57:13.758Z,20.25
2022-08-20T22:59:46.398Z,20.23
2022-08-20T23:02:22.988Z,20.22
2022-08-20T23:04:51.711Z,20.19
2022-08-20T23:07:20.122Z,20.16
2022-08-20T23:09:48.988Z,20.12
2022-08-20T23:12:17.335Z,20.08
2022-08-20T23:14:45.542Z,20.02
2022-08-20T23:17:19.192Z,19.97
2022-08-20T23:19:50.075Z,19.95
2022-08-20T23:22:19.468Z,19.96
2022-08-20T23:24:47.717Z,19.99
2022-08-20T23:27:18.835Z,20.02
2022-08-20T23:29:47.751Z,20.04
2022-08-20T23:32:17.374Z,20.04
2022-08-20T23:34:45.682Z,20.05
2022-08-20T23:37:19.104Z,20.06
2022-08-20T23:39:47.361Z,20.08
2022-08-20T23:42:17.025Z,20.11
2022-08-20T23:44:45.675Z,20.13
2022-08-20T23:47:21.570Z,20.15
2022-08-20T23:49:50.311Z,20.15
2022-08-20T23:52:18.823Z,20.13
2022-08-20T23:54:47.016Z,20.12
2022-08-20T23:57:16.487Z,20.10
2022-08-20T23:59:52.935Z,20.05
